Weather at Keflavik International Airport

Public forecast

Using degrees Celsius for public forecast. Weather courtesy of forecast.io.

Current aviation weather report (METAR) for Keflavik International Airport

Retrieved 2020/12/02 17:30 UTC (4 minutes ago):

BIKF 021730Z 01030G41KT 9999 -SHSN DRSN BKN020CB M03/M07 Q0999 R01/410077

Aviation forecast (TAF) for Keflavik International Airport

Retrieved 2020/12/02 15:51 UTC (2 hours ago):

TAF BIKF 021347Z 0215/0315 01025G37KT 9999 SCT020 TXM03/0215Z TNM05/0306Z BECMG 0217/0219 36033G45KT